sensor_id;sensor_type;location;lat;lon;timestamp;P1;durP1;ratioP1;P2;durP2;ratioP2
45962;SDS011;31669;49.892;20.818;2022-07-24T00:06:06;7.35;;;2.95;;
45962;SDS011;31669;49.892;20.818;2022-07-24T00:16:07;6.78;;;3.25;;
45962;SDS011;31669;49.892;20.818;2022-07-24T00:26:09;5.70;;;3.13;;
45962;SDS011;31669;49.892;20.818;2022-07-24T00:36:10;5.90;;;3.40;;
45962;SDS011;31669;49.892;20.818;2022-07-24T00:46:11;4.13;;;2.65;;
45962;SDS011;31669;49.892;20.818;2022-07-24T00:56:13;9.13;;;4.53;;
45962;SDS011;31669;49.892;20.818;2022-07-24T01:01:14;6.07;;;4.38;;
45962;SDS011;31669;49.892;20.818;2022-07-24T01:11:15;6.88;;;4.05;;
45962;SDS011;31669;49.892;20.818;2022-07-24T01:21:15;5.22;;;3.33;;
45962;SDS011;31669;49.892;20.818;2022-07-24T01:31:16;7.90;;;4.50;;
45962;SDS011;31669;49.892;20.818;2022-07-24T01:41:17;10.35;;;4.78;;
45962;SDS011;31669;49.892;20.818;2022-07-24T01:51:18;8.60;;;4.10;;
45962;SDS011;31669;49.892;20.818;2022-07-24T02:01:19;9.88;;;4.90;;
45962;SDS011;31669;49.892;20.818;2022-07-24T02:11:20;10.57;;;5.38;;
45962;SDS011;31669;49.892;20.818;2022-07-24T02:21:21;8.93;;;4.78;;
45962;SDS011;31669;49.892;20.818;2022-07-24T02:31:22;8.55;;;5.03;;
45962;SDS011;31669;49.892;20.818;2022-07-24T02:41:23;14.23;;;6.07;;
45962;SDS011;31669;49.892;20.818;2022-07-24T02:51:24;10.63;;;6.45;;
45962;SDS011;31669;49.892;20.818;2022-07-24T03:01:25;8.55;;;5.75;;
45962;SDS011;31669;49.892;20.818;2022-07-24T03:06:26;9.70;;;5.68;;
45962;SDS011;31669;49.892;20.818;2022-07-24T03:16:27;12.73;;;5.72;;
45962;SDS011;31669;49.892;20.818;2022-07-24T03:26:28;15.23;;;6.57;;
45962;SDS011;31669;49.892;20.818;2022-07-24T03:36:29;11.13;;;7.03;;
45962;SDS011;31669;49.892;20.818;2022-07-24T03:46:30;15.30;;;8.17;;
45962;SDS011;31669;49.892;20.818;2022-07-24T03:56:31;16.08;;;8.73;;
45962;SDS011;31669;49.892;20.818;2022-07-24T04:01:31;15.05;;;8.20;;
45962;SDS011;31669;49.892;20.818;2022-07-24T04:11:33;15.85;;;8.52;;
45962;SDS011;31669;49.892;20.818;2022-07-24T04:16:33;18.13;;;8.63;;
45962;SDS011;31669;49.892;20.818;2022-07-24T04:26:34;11.57;;;6.47;;
45962;SDS011;31669;49.892;20.818;2022-07-24T04:36:35;11.05;;;6.97;;
45962;SDS011;31669;49.892;20.818;2022-07-24T04:46:36;13.40;;;6.70;;
45962;SDS011;31669;49.892;20.818;2022-07-24T04:56:37;11.52;;;6.30;;
45962;SDS011;31669;49.892;20.818;2022-07-24T05:06:38;8.20;;;4.95;;
45962;SDS011;31669;49.892;20.818;2022-07-24T05:11:39;10.80;;;6.30;;
45962;SDS011;31669;49.892;20.818;2022-07-24T05:16:39;10.45;;;6.28;;
45962;SDS011;31669;49.892;20.818;2022-07-24T05:26:40;13.93;;;7.28;;
45962;SDS011;31669;49.892;20.818;2022-07-24T05:36:41;13.02;;;6.55;;
45962;SDS011;31669;49.892;20.818;2022-07-24T05:46:42;10.77;;;6.28;;
45962;SDS011;31669;49.892;20.818;2022-07-24T05:51:43;13.23;;;6.43;;
45962;SDS011;31669;49.892;20.818;2022-07-24T05:56:43;10.00;;;5.78;;
45962;SDS011;31669;49.892;20.818;2022-07-24T06:01:44;14.82;;;6.55;;
45962;SDS011;31669;49.892;20.818;2022-07-24T06:11:45;11.68;;;6.53;;
45962;SDS011;31669;49.892;20.818;2022-07-24T06:21:46;12.55;;;7.47;;
45962;SDS011;31669;49.892;20.818;2022-07-24T06:31:47;9.80;;;6.07;;
45962;SDS011;31669;49.892;20.818;2022-07-24T06:41:47;11.30;;;6.30;;
45962;SDS011;31669;49.892;20.818;2022-07-24T06:51:49;11.30;;;6.47;;
45962;SDS011;31669;49.892;20.818;2022-07-24T07:01:50;14.43;;;7.55;;
45962;SDS011;31669;49.892;20.818;2022-07-24T07:11:51;9.20;;;5.72;;
45962;SDS011;31669;49.892;20.818;2022-07-24T07:21:52;9.25;;;6.55;;
45962;SDS011;31669;49.892;20.818;2022-07-24T07:26:52;9.90;;;5.87;;
45962;SDS011;31669;49.892;20.818;2022-07-24T07:31:53;9.55;;;4.45;;
45962;SDS011;31669;49.892;20.818;2022-07-24T07:36:53;10.03;;;4.90;;
45962;SDS011;31669;49.892;20.818;2022-07-24T07:46:54;5.10;;;3.13;;
45962;SDS011;31669;49.892;20.818;2022-07-24T07:51:55;4.93;;;3.20;;
45962;SDS011;31669;49.892;20.818;2022-07-24T07:56:55;3.97;;;2.60;;
45962;SDS011;31669;49.892;20.818;2022-07-24T08:01:56;3.28;;;2.83;;
45962;SDS011;31669;49.892;20.818;2022-07-24T08:06:56;3.80;;;2.53;;
45962;SDS011;31669;49.892;20.818;2022-07-24T08:11:57;7.18;;;4.38;;
45962;SDS011;31669;49.892;20.818;2022-07-24T08:16:57;3.63;;;2.80;;
45962;SDS011;31669;49.892;20.818;2022-07-24T08:21:58;3.85;;;2.35;;
45962;SDS011;31669;49.892;20.818;2022-07-24T08:26:59;3.80;;;1.75;;
45962;SDS011;31669;49.892;20.818;2022-07-24T08:32:00;3.35;;;2.40;;
45962;SDS011;31669;49.892;20.818;2022-07-24T08:37:00;2.67;;;1.70;;
45962;SDS011;31669;49.892;20.818;2022-07-24T08:42:01;3.90;;;2.22;;
45962;SDS011;31669;49.892;20.818;2022-07-24T08:47:02;2.00;;;1.73;;
45962;SDS011;31669;49.892;20.818;2022-07-24T08:52:03;3.47;;;2.40;;
45962;SDS011;31669;49.892;20.818;2022-07-24T08:57:05;3.33;;;2.45;;
45962;SDS011;31669;49.892;20.818;2022-07-24T09:02:05;2.28;;;1.85;;
45962;SDS011;31669;49.892;20.818;2022-07-24T09:17:08;2.53;;;2.33;;
45962;SDS011;31669;49.892;20.818;2022-07-24T09:22:09;2.45;;;1.90;;
45962;SDS011;31669;49.892;20.818;2022-07-24T09:27:13;2.45;;;2.03;;
45962;SDS011;31669;49.892;20.818;2022-07-24T09:32:14;2.50;;;2.13;;
45962;SDS011;31669;49.892;20.818;2022-07-24T09:37:22;1.88;;;1.50;;
45962;SDS011;31669;49.892;20.818;2022-07-24T09:42:28;4.25;;;2.03;;
45962;SDS011;31669;49.892;20.818;2022-07-24T09:47:30;2.50;;;1.50;;
45962;SDS011;31669;49.892;20.818;2022-07-24T09:52:32;1.50;;;1.30;;
45962;SDS011;31669;49.892;20.818;2022-07-24T09:57:33;1.67;;;1.58;;
45962;SDS011;31669;49.892;20.818;2022-07-24T10:02:33;2.58;;;2.03;;
45962;SDS011;31669;49.892;20.818;2022-07-24T10:07:34;2.10;;;1.90;;
45962;SDS011;31669;49.892;20.818;2022-07-24T10:12:35;1.92;;;1.65;;
45962;SDS011;31669;49.892;20.818;2022-07-24T10:17:48;2.53;;;1.42;;
45962;SDS011;31669;49.892;20.818;2022-07-24T10:23:04;1.38;;;1.23;;
45962;SDS011;31669;49.892;20.818;2022-07-24T10:28:04;3.13;;;1.45;;
45962;SDS011;31669;49.892;20.818;2022-07-24T10:33:06;2.15;;;0.98;;
45962;SDS011;31669;49.892;20.818;2022-07-24T10:38:12;5.03;;;1.37;;
45962;SDS011;31669;49.892;20.818;2022-07-24T10:43:16;0.90;;;0.85;;
45962;SDS011;31669;49.892;20.818;2022-07-24T10:53:20;1.50;;;1.08;;
45962;SDS011;31669;49.892;20.818;2022-07-24T10:58:22;2.58;;;1.77;;
45962;SDS011;31669;49.892;20.818;2022-07-24T11:03:24;2.47;;;1.63;;
45962;SDS011;31669;49.892;20.818;2022-07-24T11:08:25;2.50;;;1.27;;
45962;SDS011;31669;49.892;20.818;2022-07-24T11:18:33;1.38;;;1.27;;
45962;SDS011;31669;49.892;20.818;2022-07-24T11:23:35;1.77;;;1.52;;
45962;SDS011;31669;49.892;20.818;2022-07-24T11:28:35;1.90;;;1.30;;
45962;SDS011;31669;49.892;20.818;2022-07-24T11:33:36;2.70;;;2.08;;
45962;SDS011;31669;49.892;20.818;2022-07-24T11:38:37;1.77;;;1.63;;
45962;SDS011;31669;49.892;20.818;2022-07-24T11:43:49;1.63;;;1.42;;
45962;SDS011;31669;49.892;20.818;2022-07-24T11:49:01;1.52;;;1.42;;
45962;SDS011;31669;49.892;20.818;2022-07-24T11:54:02;1.98;;;1.58;;
45962;SDS011;31669;49.892;20.818;2022-07-24T11:59:03;1.95;;;1.30;;
45962;SDS011;31669;49.892;20.818;2022-07-24T12:09:05;1.75;;;1.60;;
45962;SDS011;31669;49.892;20.818;2022-07-24T12:14:15;1.83;;;1.23;;
45962;SDS011;31669;49.892;20.818;2022-07-24T12:19:17;2.07;;;1.87;;
45962;SDS011;31669;49.892;20.818;2022-07-24T12:24:18;1.23;;;1.13;;
45962;SDS011;31669;49.892;20.818;2022-07-24T12:34:19;4.10;;;1.40;;
45962;SDS011;31669;49.892;20.818;2022-07-24T12:39:20;1.00;;;1.00;;
45962;SDS011;31669;49.892;20.818;2022-07-24T12:44:20;1.63;;;1.53;;
45962;SDS011;31669;49.892;20.818;2022-07-24T12:54:45;2.00;;;1.35;;
45962;SDS011;31669;49.892;20.818;2022-07-24T12:59:43;2.08;;;1.50;;
45962;SDS011;31669;49.892;20.818;2022-07-24T13:04:48;1.95;;;1.40;;
45962;SDS011;31669;49.892;20.818;2022-07-24T13:09:49;3.17;;;1.42;;
45962;SDS011;31669;49.892;20.818;2022-07-24T13:14:50;2.22;;;1.65;;
45962;SDS011;31669;49.892;20.818;2022-07-24T13:19:50;3.90;;;2.13;;
45962;SDS011;31669;49.892;20.818;2022-07-24T13:24:52;1.92;;;1.55;;
45962;SDS011;31669;49.892;20.818;2022-07-24T13:29:52;1.63;;;1.40;;
45962;SDS011;31669;49.892;20.818;2022-07-24T13:39:53;2.25;;;1.50;;
45962;SDS011;31669;49.892;20.818;2022-07-24T13:49:57;3.90;;;1.55;;
45962;SDS011;31669;49.892;20.818;2022-07-24T13:54:57;2.73;;;1.37;;
45962;SDS011;31669;49.892;20.818;2022-07-24T14:04:58;2.00;;;1.80;;
45962;SDS011;31669;49.892;20.818;2022-07-24T14:14:59;6.05;;;1.55;;
45962;SDS011;31669;49.892;20.818;2022-07-24T14:25:00;1.63;;;1.40;;
45962;SDS011;31669;49.892;20.818;2022-07-24T14:35:01;2.92;;;2.13;;
45962;SDS011;31669;49.892;20.818;2022-07-24T14:40:06;6.40;;;2.50;;
45962;SDS011;31669;49.892;20.818;2022-07-24T14:45:07;2.30;;;1.95;;
45962;SDS011;31669;49.892;20.818;2022-07-24T14:50:09;4.75;;;2.55;;
45962;SDS011;31669;49.892;20.818;2022-07-24T14:55:09;3.63;;;2.83;;
45962;SDS011;31669;49.892;20.818;2022-07-24T15:00:10;2.30;;;1.90;;
45962;SDS011;31669;49.892;20.818;2022-07-24T15:05:11;5.47;;;2.65;;
45962;SDS011;31669;49.892;20.818;2022-07-24T15:15:11;6.20;;;3.67;;
45962;SDS011;31669;49.892;20.818;2022-07-24T15:25:12;4.10;;;2.30;;
45962;SDS011;31669;49.892;20.818;2022-07-24T15:35:13;10.55;;;3.08;;
45962;SDS011;31669;49.892;20.818;2022-07-24T15:45:14;2.13;;;1.50;;
45962;SDS011;31669;49.892;20.818;2022-07-24T15:55:15;1.83;;;1.23;;
45962;SDS011;31669;49.892;20.818;2022-07-24T16:00:16;6.07;;;2.33;;
45962;SDS011;31669;49.892;20.818;2022-07-24T16:05:16;2.13;;;1.30;;
45962;SDS011;31669;49.892;20.818;2022-07-24T16:15:18;3.75;;;1.67;;
45962;SDS011;31669;49.892;20.818;2022-07-24T16:25:20;1.83;;;1.30;;
45962;SDS011;31669;49.892;20.818;2022-07-24T16:30:20;2.13;;;1.88;;
45962;SDS011;31669;49.892;20.818;2022-07-24T16:40:21;3.47;;;1.30;;
45962;SDS011;31669;49.892;20.818;2022-07-24T16:50:22;3.75;;;1.67;;
45962;SDS011;31669;49.892;20.818;2022-07-24T16:55:22;1.40;;;1.20;;
45962;SDS011;31669;49.892;20.818;2022-07-24T17:00:23;3.70;;;1.52;;
45962;SDS011;31669;49.892;20.818;2022-07-24T17:10:24;0.85;;;0.75;;
45962;SDS011;31669;49.892;20.818;2022-07-24T17:15:26;2.45;;;1.30;;
45962;SDS011;31669;49.892;20.818;2022-07-24T17:20:26;1.38;;;1.17;;
45962;SDS011;31669;49.892;20.818;2022-07-24T17:25:28;2.80;;;1.23;;
45962;SDS011;31669;49.892;20.818;2022-07-24T17:30:30;1.77;;;1.30;;
45962;SDS011;31669;49.892;20.818;2022-07-24T17:35:32;2.50;;;1.20;;
45962;SDS011;31669;49.892;20.818;2022-07-24T17:40:33;1.40;;;1.10;;
45962;SDS011;31669;49.892;20.818;2022-07-24T17:45:33;3.75;;;1.20;;
45962;SDS011;31669;49.892;20.818;2022-07-24T17:55:34;3.17;;;1.10;;
45962;SDS011;31669;49.892;20.818;2022-07-24T18:00:35;1.02;;;1.02;;
45962;SDS011;31669;49.892;20.818;2022-07-24T18:05:35;1.30;;;1.20;;
45962;SDS011;31669;49.892;20.818;2022-07-24T18:10:36;1.75;;;1.10;;
45962;SDS011;31669;49.892;20.818;2022-07-24T18:15:36;1.40;;;1.00;;
45962;SDS011;31669;49.892;20.818;2022-07-24T18:20:37;1.15;;;1.05;;
45962;SDS011;31669;49.892;20.818;2022-07-24T18:25:37;1.30;;;1.20;;
45962;SDS011;31669;49.892;20.818;2022-07-24T18:30:38;1.60;;;1.50;;
45962;SDS011;31669;49.892;20.818;2022-07-24T18:35:39;1.30;;;1.10;;
45962;SDS011;31669;49.892;20.818;2022-07-24T18:40:40;3.03;;;1.60;;
45962;SDS011;31669;49.892;20.818;2022-07-24T18:45:41;3.42;;;1.88;;
45962;SDS011;31669;49.892;20.818;2022-07-24T18:50:42;2.87;;;1.57;;
45962;SDS011;31669;49.892;20.818;2022-07-24T18:55:42;1.38;;;1.15;;
45962;SDS011;31669;49.892;20.818;2022-07-24T19:00:43;6.95;;;1.85;;
45962;SDS011;31669;49.892;20.818;2022-07-24T19:05:43;3.33;;;1.80;;
45962;SDS011;31669;49.892;20.818;2022-07-24T19:10:44;0.60;;;0.60;;
45962;SDS011;31669;49.892;20.818;2022-07-24T19:15:44;1.40;;;1.30;;
45962;SDS011;31669;49.892;20.818;2022-07-24T19:20:45;0.88;;;0.82;;
45962;SDS011;31669;49.892;20.818;2022-07-24T19:25:46;2.23;;;1.47;;
45962;SDS011;31669;49.892;20.818;2022-07-24T19:30:46;1.87;;;1.17;;
45962;SDS011;31669;49.892;20.818;2022-07-24T19:35:47;1.93;;;0.97;;
45962;SDS011;31669;49.892;20.818;2022-07-24T19:40:48;2.88;;;1.65;;
45962;SDS011;31669;49.892;20.818;2022-07-24T19:45:51;2.08;;;1.23;;
45962;SDS011;31669;49.892;20.818;2022-07-24T19:50:52;1.75;;;1.52;;
45962;SDS011;31669;49.892;20.818;2022-07-24T19:55:53;0.80;;;0.80;;
45962;SDS011;31669;49.892;20.818;2022-07-24T20:00:53;1.05;;;0.82;;
45962;SDS011;31669;49.892;20.818;2022-07-24T20:05:54;1.93;;;1.20;;
45962;SDS011;31669;49.892;20.818;2022-07-24T20:10:54;2.50;;;1.00;;
45962;SDS011;31669;49.892;20.818;2022-07-24T20:15:55;1.73;;;1.17;;
45962;SDS011;31669;49.892;20.818;2022-07-24T20:20:56;1.75;;;1.60;;
45962;SDS011;31669;49.892;20.818;2022-07-24T20:25:56;3.60;;;1.63;;
45962;SDS011;31669;49.892;20.818;2022-07-24T20:30:57;1.55;;;1.08;;
45962;SDS011;31669;49.892;20.818;2022-07-24T20:35:58;1.20;;;0.80;;
45962;SDS011;31669;49.892;20.818;2022-07-24T20:40:59;2.92;;;0.95;;
45962;SDS011;31669;49.892;20.818;2022-07-24T20:45:59;2.50;;;1.25;;
45962;SDS011;31669;49.892;20.818;2022-07-24T20:51:02;4.28;;;1.40;;
45962;SDS011;31669;49.892;20.818;2022-07-24T20:56:03;3.73;;;1.33;;
45962;SDS011;31669;49.892;20.818;2022-07-24T21:01:06;1.38;;;1.20;;
45962;SDS011;31669;49.892;20.818;2022-07-24T21:06:07;0.70;;;0.70;;
45962;SDS011;31669;49.892;20.818;2022-07-24T21:11:07;1.00;;;1.00;;
45962;SDS011;31669;49.892;20.818;2022-07-24T21:16:08;1.20;;;1.10;;
45962;SDS011;31669;49.892;20.818;2022-07-24T21:21:08;1.73;;;1.20;;
45962;SDS011;31669;49.892;20.818;2022-07-24T21:26:09;8.45;;;1.42;;
45962;SDS011;31669;49.892;20.818;2022-07-24T21:31:09;1.33;;;1.20;;
45962;SDS011;31669;49.892;20.818;2022-07-24T21:36:10;1.80;;;1.30;;
45962;SDS011;31669;49.892;20.818;2022-07-24T21:41:10;0.80;;;0.80;;
45962;SDS011;31669;49.892;20.818;2022-07-24T21:46:11;1.10;;;1.00;;
45962;SDS011;31669;49.892;20.818;2022-07-24T21:51:12;1.08;;;0.82;;
45962;SDS011;31669;49.892;20.818;2022-07-24T21:56:12;1.23;;;1.00;;
45962;SDS011;31669;49.892;20.818;2022-07-24T22:01:14;1.60;;;1.20;;
45962;SDS011;31669;49.892;20.818;2022-07-24T22:06:14;1.00;;;0.70;;
45962;SDS011;31669;49.892;20.818;2022-07-24T22:11:14;1.73;;;1.47;;
45962;SDS011;31669;49.892;20.818;2022-07-24T22:16:15;3.83;;;1.07;;
45962;SDS011;31669;49.892;20.818;2022-07-24T22:21:15;1.93;;;1.10;;
45962;SDS011;31669;49.892;20.818;2022-07-24T22:26:16;1.57;;;1.00;;
45962;SDS011;31669;49.892;20.818;2022-07-24T22:31:16;1.00;;;0.93;;
45962;SDS011;31669;49.892;20.818;2022-07-24T22:36:17;2.20;;;1.35;;
45962;SDS011;31669;49.892;20.818;2022-07-24T22:41:19;1.15;;;1.08;;
45962;SDS011;31669;49.892;20.818;2022-07-24T22:46:19;0.77;;;0.73;;
45962;SDS011;31669;49.892;20.818;2022-07-24T22:51:20;1.60;;;1.33;;
45962;SDS011;31669;49.892;20.818;2022-07-24T22:56:21;1.77;;;1.27;;
45962;SDS011;31669;49.892;20.818;2022-07-24T23:01:24;1.27;;;1.17;;
45962;SDS011;31669;49.892;20.818;2022-07-24T23:06:26;2.92;;;1.60;;
45962;SDS011;31669;49.892;20.818;2022-07-24T23:11:27;1.63;;;1.10;;
45962;SDS011;31669;49.892;20.818;2022-07-24T23:16:27;1.43;;;1.10;;
45962;SDS011;31669;49.892;20.818;2022-07-24T23:21:28;3.80;;;1.50;;
45962;SDS011;31669;49.892;20.818;2022-07-24T23:26:28;1.57;;;1.47;;
45962;SDS011;31669;49.892;20.818;2022-07-24T23:31:29;1.13;;;1.00;;
45962;SDS011;31669;49.892;20.818;2022-07-24T23:36:30;4.20;;;1.85;;
45962;SDS011;31669;49.892;20.818;2022-07-24T23:41:30;5.27;;;1.20;;
45962;SDS011;31669;49.892;20.818;2022-07-24T23:46:31;1.97;;;1.40;;
45962;SDS011;31669;49.892;20.818;2022-07-24T23:51:31;2.13;;;1.37;;
45962;SDS011;31669;49.892;20.818;2022-07-24T23:56:32;1.00;;;1.00;;
